GS315 EDXW-EDDH
Flight info
| Callsign | GS315 |
|---|---|
| Flight time | N/A |
| Altitude | 9000 |
| Route | OLDIP DCT BADOS DCT OMWEG/N0281F080 DCT RIBSO RIBSO3S |
| Aircraft | P180/L-SBDFGM3RWXY/LB1 |
Departure
| Time | 2026-04-27 07:51 |
|---|---|
| Airport | Westerland Sylt Airport (EDXW) |
Arrival
| Time | N/A |
|---|---|
| Airport | Hamburg Helmut Schmidt Airport (EDDH) |
| Time | Latitude | Longitude | Altitude | Speed | Heading |
|---|---|---|---|---|---|
| 2026-04-27 07:24 | 54.91365 | 8.32453 | 21 ft | 0 kts | 262° |
| 2026-04-27 07:43 | 54.91369 | 8.32480 | 23 ft | 4 kts | 214° |
| 2026-04-27 07:44 | 54.91389 | 8.32487 | 22 ft | 1 kts | 173° |
| 2026-04-27 07:44 | 54.91394 | 8.32486 | 21 ft | 0 kts | 173° |
| 2026-04-27 07:48 | 54.91388 | 8.32487 | 21 ft | 3 kts | 172° |
| 2026-04-27 07:48 | 54.91349 | 8.32498 | 24 ft | 8 kts | 166° |
| 2026-04-27 07:49 | 54.91278 | 8.32533 | 21 ft | 13 kts | 160° |
| 2026-04-27 07:49 | 54.91192 | 8.32642 | 22 ft | 18 kts | 133° |
| 2026-04-27 07:49 | 54.91107 | 8.32815 | 23 ft | 19 kts | 131° |
| 2026-04-27 07:49 | 54.91023 | 8.32972 | 27 ft | 4 kts | 131° |
| 2026-04-27 07:50 | 54.91023 | 8.32973 | 27 ft | 0 kts | 130° |
| 2026-04-27 07:50 | 54.91019 | 8.32981 | 27 ft | 3 kts | 131° |
| 2026-04-27 07:51 | 54.90997 | 8.33119 | 28 ft | 29 kts | 78° |
| 2026-04-27 07:51 | 54.91164 | 8.33578 | 27 ft | 95 kts | 60° |
| 2026-04-27 07:51 | 54.91600 | 8.34895 | 436 ft | 149 kts | 64° |
| 2026-04-27 07:51 | 54.91557 | 8.36882 | 1534 ft | 183 kts | 118° |
| 2026-04-27 07:52 | 54.90436 | 8.38318 | 2301 ft | 226 kts | 163° |
| 2026-04-27 07:52 | 54.88800 | 8.38762 | 2912 ft | 248 kts | 176° |
| 2026-04-27 07:52 | 54.87016 | 8.38887 | 3374 ft | 267 kts | 175° |
| 2026-04-27 07:52 | 54.85241 | 8.39824 | 3646 ft | 269 kts | 148° |
| 2026-04-27 07:53 | 54.83820 | 8.41918 | 3883 ft | 268 kts | 135° |
| 2026-04-27 07:53 | 54.82413 | 8.44044 | 4126 ft | 268 kts | 142° |
| 2026-04-27 07:53 | 54.80896 | 8.45854 | 4627 ft | 262 kts | 146° |
| 2026-04-27 07:53 | 54.79439 | 8.47705 | 5142 ft | 259 kts | 141° |
| 2026-04-27 07:54 | 54.78016 | 8.49630 | 5632 ft | 259 kts | 142° |
| 2026-04-27 07:54 | 54.76554 | 8.51468 | 6143 ft | 259 kts | 143° |
| 2026-04-27 07:54 | 54.75115 | 8.53298 | 6653 ft | 260 kts | 142° |
| 2026-04-27 07:54 | 54.73667 | 8.55176 | 7143 ft | 260 kts | 143° |
| 2026-04-27 07:55 | 54.72206 | 8.57042 | 7635 ft | 261 kts | 143° |
| 2026-04-27 07:55 | 54.70743 | 8.58914 | 8137 ft | 261 kts | 143° |
| 2026-04-27 07:55 | 54.69275 | 8.60789 | 8642 ft | 262 kts | 143° |
| 2026-04-27 07:55 | 54.67807 | 8.62660 | 9157 ft | 262 kts | 143° |
| 2026-04-27 07:56 | 54.66353 | 8.64518 | 9679 ft | 262 kts | 143° |
| 2026-04-27 07:56 | 54.64879 | 8.66388 | 10218 ft | 263 kts | 143° |
| 2026-04-27 07:56 | 54.63401 | 8.68277 | 10702 ft | 265 kts | 143° |
| 2026-04-27 07:56 | 54.61914 | 8.70180 | 11193 ft | 266 kts | 142° |
| 2026-04-27 07:57 | 54.60590 | 8.72428 | 11684 ft | 267 kts | 132° |
| 2026-04-27 07:57 | 54.59300 | 8.74741 | 12195 ft | 269 kts | 134° |
| 2026-04-27 07:57 | 54.57984 | 8.76990 | 12705 ft | 270 kts | 134° |
| 2026-04-27 07:57 | 54.56666 | 8.79291 | 13221 ft | 271 kts | 134° |
| 2026-04-27 07:58 | 54.55297 | 8.81700 | 13346 ft | 288 kts | 134° |
| 2026-04-27 07:58 | 54.53871 | 8.84201 | 13349 ft | 303 kts | 134° |
| 2026-04-27 07:58 | 54.52359 | 8.86839 | 13354 ft | 314 kts | 134° |
| 2026-04-27 07:58 | 54.50810 | 8.89553 | 13352 ft | 322 kts | 134° |
| 2026-04-27 07:59 | 54.49215 | 8.92331 | 13354 ft | 327 kts | 134° |
| 2026-04-27 07:59 | 54.45985 | 8.97962 | 13353 ft | 333 kts | 134° |
| 2026-04-27 07:59 | 54.44352 | 9.00798 | 13350 ft | 335 kts | 134° |
| 2026-04-27 08:00 | 54.42717 | 9.03612 | 13351 ft | 336 kts | 134° |
| 2026-04-27 08:00 | 54.41074 | 9.06476 | 13339 ft | 337 kts | 134° |
| 2026-04-27 08:00 | 54.39427 | 9.09346 | 13340 ft | 337 kts | 134° |
| 2026-04-27 08:00 | 54.37761 | 9.12197 | 13348 ft | 338 kts | 134° |
| 2026-04-27 08:01 | 54.35943 | 9.14748 | 13338 ft | 339 kts | 148° |
| 2026-04-27 08:01 | 54.33872 | 9.16681 | 13340 ft | 339 kts | 153° |
| 2026-04-27 08:01 | 54.31797 | 9.18605 | 13337 ft | 339 kts | 150° |
| 2026-04-27 08:01 | 54.29792 | 9.20745 | 13340 ft | 339 kts | 148° |
| 2026-04-27 08:02 | 54.27767 | 9.22825 | 13339 ft | 339 kts | 150° |
| 2026-04-27 08:02 | 54.25704 | 9.24766 | 13344 ft | 339 kts | 152° |
| 2026-04-27 08:02 | 54.23675 | 9.26763 | 13339 ft | 340 kts | 149° |
| 2026-04-27 08:02 | 54.21652 | 9.28859 | 13343 ft | 340 kts | 149° |
| 2026-04-27 08:03 | 54.19599 | 9.30898 | 13348 ft | 341 kts | 150° |
| 2026-04-27 08:03 | 54.17526 | 9.32905 | 13341 ft | 341 kts | 150° |
| 2026-04-27 08:03 | 54.15481 | 9.34950 | 13345 ft | 341 kts | 149° |
| 2026-04-27 08:03 | 54.13423 | 9.36971 | 13342 ft | 341 kts | 152° |
| 2026-04-27 08:04 | 54.11288 | 9.38427 | 13338 ft | 339 kts | 167° |
| 2026-04-27 08:04 | 54.08974 | 9.39127 | 13326 ft | 337 kts | 173° |
| 2026-04-27 08:04 | 54.06697 | 9.39670 | 13292 ft | 326 kts | 174° |
| 2026-04-27 08:04 | 54.04490 | 9.40201 | 13094 ft | 320 kts | 174° |
| 2026-04-27 08:05 | 54.02344 | 9.40709 | 12832 ft | 305 kts | 174° |
| 2026-04-27 08:05 | 54.00265 | 9.41213 | 12560 ft | 294 kts | 173° |
| 2026-04-27 08:05 | 53.98273 | 9.41700 | 12294 ft | 285 kts | 174° |
| 2026-04-27 08:05 | 53.96324 | 9.42173 | 12032 ft | 279 kts | 174° |
| 2026-04-27 08:06 | 53.94441 | 9.42631 | 11775 ft | 274 kts | 174° |
| 2026-04-27 08:06 | 53.92561 | 9.43095 | 11484 ft | 271 kts | 174° |
| 2026-04-27 08:06 | 53.90679 | 9.43533 | 11013 ft | 274 kts | 174° |
| 2026-04-27 08:06 | 53.88777 | 9.43977 | 10550 ft | 276 kts | 174° |
| 2026-04-27 08:07 | 53.86866 | 9.44420 | 10046 ft | 277 kts | 174° |
| 2026-04-27 08:07 | 53.84950 | 9.44864 | 9441 ft | 280 kts | 174° |
| 2026-04-27 08:07 | 53.83034 | 9.45298 | 8856 ft | 281 kts | 174° |
| 2026-04-27 08:07 | 53.81068 | 9.45739 | 8263 ft | 281 kts | 174° |
| 2026-04-27 08:08 | 53.79154 | 9.46158 | 7693 ft | 280 kts | 174° |
| 2026-04-27 08:08 | 53.77227 | 9.46577 | 7129 ft | 279 kts | 173° |
| 2026-04-27 08:08 | 53.75300 | 9.46709 | 6549 ft | 276 kts | 189° |
| 2026-04-27 08:08 | 53.73497 | 9.45714 | 5951 ft | 271 kts | 205° |
| 2026-04-27 08:09 | 53.71765 | 9.44502 | 5418 ft | 267 kts | 203° |
| 2026-04-27 08:09 | 53.70040 | 9.43370 | 5030 ft | 258 kts | 204° |
| 2026-04-27 08:09 | 53.68450 | 9.42290 | 5024 ft | 237 kts | 204° |
| 2026-04-27 08:09 | 53.66967 | 9.41289 | 5010 ft | 234 kts | 204° |
| 2026-04-27 08:10 | 53.65425 | 9.40235 | 5012 ft | 238 kts | 203° |
| 2026-04-27 08:10 | 53.63887 | 9.39261 | 5008 ft | 241 kts | 197° |
| 2026-04-27 08:10 | 53.62231 | 9.39435 | 5015 ft | 246 kts | 157° |
| 2026-04-27 08:10 | 53.60778 | 9.40978 | 5019 ft | 248 kts | 143° |
| 2026-04-27 08:11 | 53.59513 | 9.42933 | 5018 ft | 248 kts | 128° |
| 2026-04-27 08:11 | 53.58498 | 9.45297 | 5016 ft | 248 kts | 124° |
| 2026-04-27 08:11 | 53.57494 | 9.47682 | 4820 ft | 254 kts | 124° |
| 2026-04-27 08:11 | 53.56487 | 9.50115 | 4432 ft | 251 kts | 124° |
| 2026-04-27 08:12 | 53.55513 | 9.52486 | 4062 ft | 249 kts | 123° |
| 2026-04-27 08:12 | 53.54563 | 9.54826 | 4018 ft | 234 kts | 124° |
| 2026-04-27 08:12 | 53.53660 | 9.57023 | 4008 ft | 222 kts | 124° |
| 2026-04-27 08:12 | 53.52807 | 9.59123 | 4010 ft | 213 kts | 123° |
| 2026-04-27 08:13 | 53.51962 | 9.61211 | 3613 ft | 224 kts | 124° |
| 2026-04-27 08:13 | 53.51062 | 9.63458 | 3128 ft | 234 kts | 122° |
| 2026-04-27 08:13 | 53.50202 | 9.65649 | 3256 ft | 216 kts | 122° |
| 2026-04-27 08:13 | 53.49505 | 9.67748 | 3374 ft | 201 kts | 109° |
| 2026-04-27 08:14 | 53.49365 | 9.70009 | 3490 ft | 191 kts | 85° |
| 2026-04-27 08:14 | 53.49586 | 9.72156 | 3554 ft | 184 kts | 61° |
| 2026-04-27 08:14 | 53.50478 | 9.73601 | 3595 ft | 178 kts | 37° |
| 2026-04-27 08:14 | 53.51300 | 9.75210 | 3446 ft | 188 kts | 51° |
| 2026-04-27 08:15 | 53.52126 | 9.76893 | 3182 ft | 179 kts | 47° |
| 2026-04-27 08:15 | 53.52913 | 9.78414 | 2944 ft | 167 kts | 47° |
| 2026-04-27 08:15 | 53.53646 | 9.79869 | 2720 ft | 160 kts | 48° |
| 2026-04-27 08:15 | 53.54340 | 9.81281 | 2502 ft | 154 kts | 48° |
| 2026-04-27 08:16 | 53.55015 | 9.82637 | 2291 ft | 152 kts | 49° |
| 2026-04-27 08:16 | 53.55683 | 9.83997 | 2082 ft | 149 kts | 49° |
| 2026-04-27 08:16 | 53.56333 | 9.85334 | 1875 ft | 147 kts | 49° |
| 2026-04-27 08:16 | 53.56998 | 9.86654 | 1665 ft | 147 kts | 48° |
| 2026-04-27 08:17 | 53.57654 | 9.87969 | 1467 ft | 146 kts | 49° |
| 2026-04-27 08:17 | 53.58305 | 9.89289 | 1258 ft | 147 kts | 49° |
| 2026-04-27 08:17 | 53.58958 | 9.90601 | 1023 ft | 146 kts | 48° |
| 2026-04-27 08:17 | 53.59597 | 9.91893 | 816 ft | 138 kts | 49° |
| 2026-04-27 08:18 | 53.60172 | 9.93054 | 642 ft | 125 kts | 47° |
| 2026-04-27 08:18 | 53.60709 | 9.94133 | 481 ft | 116 kts | 46° |
| 2026-04-27 08:18 | 53.61218 | 9.95158 | 326 ft | 113 kts | 50° |